K I Sawyer A F B, Michigan
Current Conditions -  °F | °C
As of 4:37 AM on Tuesday 21 Oct 2014 (Local Time) from KSAW Reporting Station
Light Rain Light Rain  
Wind Chill: 32°   Ceiling: 900
Heat Index: 39°   Visibility: 4mi
Dew Point: 37°   Wind: 12mph
Humidity: 93%   Direction: 20°NNE
Pressure: 30.11"   Gusts: 17mph
Location:  46.3289°N, 87.363°W
Report Text: KSAW 210837Z AUTO 02010G15KT 4SM -RA BKN009 OVC012 04/03 A3011 RMK AO2 T00400029
Loading
Personal Weather Stations






























Interactive Weather Map
Tropical Storm Tracking
New forecast layout! Learn more

10-Day Weather Forecast

Advertisements
Track Severe Weather on mobile